createdAt,value
2022-10-30T00:00:48.863Z,101517.81
2022-10-30T00:03:16.371Z,101507.31
2022-10-30T00:05:48.286Z,101509.44
2022-10-30T00:08:18.049Z,101514.28
2022-10-30T00:10:45.891Z,101514.75
2022-10-30T00:13:14.115Z,101519.69
2022-10-30T00:15:47.214Z,101510.56
2022-10-30T00:18:14.212Z,101521.06
2022-10-30T00:20:41.045Z,101524.88
2022-10-30T00:23:07.804Z,101524.38
2022-10-30T00:25:36.326Z,101519.31
2022-10-30T00:28:05.242Z,101532.50
2022-10-30T00:30:32.518Z,101521.03
2022-10-30T00:32:59.721Z,101520.94
2022-10-30T00:35:26.770Z,101530.66
2022-10-30T00:37:53.909Z,101526.94
2022-10-30T00:40:20.825Z,101519.59
2022-10-30T00:42:48.381Z,101515.19
2022-10-30T00:45:17.265Z,101514.38
2022-10-30T00:47:59.450Z,101516.59
2022-10-30T00:50:32.214Z,101514.16
2022-10-30T00:53:11.867Z,101523.16
2022-10-30T00:56:07.522Z,101512.97
2022-10-30T00:58:44.968Z,101505.16
2022-10-30T01:01:17.933Z,101503.75
2022-10-30T01:03:46.266Z,101504.06
2022-10-30T01:06:15.993Z,101500.03
2022-10-30T01:08:43.853Z,101502.59
2022-10-30T01:11:12.079Z,101502.16
2022-10-30T01:13:42.921Z,101501.81
2022-10-30T01:16:44.535Z,101503.63
2022-10-30T01:19:29.883Z,101503.81
2022-10-30T01:22:30.705Z,101502.41
2022-10-30T01:25:34.547Z,101498.13
2022-10-30T01:28:26.183Z,101497.28
2022-10-30T01:30:56.947Z,101497.78
2022-10-30T01:33:33.415Z,101505.44
2022-10-30T01:36:12.749Z,101504.66
2022-10-30T01:38:47.709Z,101510.44
2022-10-30T01:41:14.898Z,101514.16
2022-10-30T01:43:47.257Z,101511.38
2022-10-30T01:46:23.065Z,101504.94
2022-10-30T01:49:12.326Z,101497.63
2022-10-30T01:51:56.423Z,101501.19
2022-10-30T01:54:26.127Z,101496.63
2022-10-30T01:57:17.316Z,101506.63
2022-10-30T02:00:05.353Z,101499.53
2022-10-30T02:02:40.041Z,101492.59
2022-10-30T02:05:12.128Z,101486.78
2022-10-30T02:07:39.004Z,101499.09
2022-10-30T02:10:08.318Z,101495.34
2022-10-30T02:12:35.234Z,101497.97
2022-10-30T02:15:02.428Z,101510.66
2022-10-30T02:17:29.498Z,101506.75
2022-10-30T02:19:57.027Z,101504.09
2022-10-30T02:22:25.128Z,101514.66
2022-10-30T02:24:52.400Z,101511.38
2022-10-30T02:27:22.463Z,101522.72
2022-10-30T02:29:49.377Z,101516.56
2022-10-30T02:32:16.249Z,101523.19
2022-10-30T02:34:44.391Z,101517.91
2022-10-30T02:37:11.340Z,101517.94
2022-10-30T02:39:39.618Z,101521.00
2022-10-30T02:42:07.570Z,101519.75
2022-10-30T02:44:34.382Z,101526.63
2022-10-30T02:47:01.312Z,101526.00
2022-10-30T02:49:28.132Z,101528.91
2022-10-30T02:51:54.980Z,101530.94
2022-10-30T02:54:21.854Z,101521.41
2022-10-30T02:56:49.374Z,101534.13
2022-10-30T02:59:16.204Z,101525.31
2022-10-30T03:01:43.671Z,101529.88
2022-10-30T03:04:10.645Z,101521.88
2022-10-30T03:06:37.513Z,101530.19
2022-10-30T03:09:05.583Z,101539.81
2022-10-30T03:11:34.126Z,101521.06
2022-10-30T03:14:00.907Z,101539.31
2022-10-30T03:16:29.496Z,101534.50
2022-10-30T03:18:57.034Z,101537.03
2022-10-30T03:21:25.220Z,101538.28
2022-10-30T03:23:52.715Z,101537.34
2022-10-30T03:26:20.239Z,101548.09
2022-10-30T03:29:03.400Z,101552.47
2022-10-30T03:31:31.193Z,101548.69
2022-10-30T03:34:14.407Z,101549.84
2022-10-30T03:36:42.143Z,101546.22
2022-10-30T03:39:09.082Z,101549.94
2022-10-30T03:41:36.677Z,101547.81
2022-10-30T03:44:03.582Z,101546.91
2022-10-30T03:46:31.519Z,101549.59
2022-10-30T03:49:12.491Z,101557.94
2022-10-30T03:51:39.418Z,101558.19
2022-10-30T03:54:06.569Z,101557.34
2022-10-30T03:56:33.444Z,101570.94
2022-10-30T03:59:02.023Z,101563.41
2022-10-30T04:01:30.096Z,101572.69
2022-10-30T04:03:57.392Z,101561.03
2022-10-30T04:06:25.414Z,101574.75
2022-10-30T04:08:54.938Z,101563.19
2022-10-30T04:11:22.032Z,101581.44
2022-10-30T04:13:48.876Z,101568.19
2022-10-30T04:16:15.671Z,101568.97
2022-10-30T04:18:43.640Z,101570.34
2022-10-30T04:21:11.858Z,101566.53
2022-10-30T04:23:39.243Z,101575.88
2022-10-30T04:26:06.206Z,101571.03
2022-10-30T04:28:35.399Z,101577.88
2022-10-30T04:31:04.087Z,101577.59
2022-10-30T04:33:32.585Z,101587.84
2022-10-30T04:36:00.318Z,101580.19
2022-10-30T04:38:27.225Z,101580.28
2022-10-30T04:40:56.038Z,101573.66
2022-10-30T04:43:28.396Z,101571.59
2022-10-30T04:45:55.209Z,101584.28
2022-10-30T04:48:22.011Z,101585.09
2022-10-30T04:50:49.064Z,101573.72
2022-10-30T04:53:22.559Z,101579.16
2022-10-30T04:55:55.543Z,101565.97
2022-10-30T04:58:22.506Z,101563.19
2022-10-30T05:01:03.385Z,101565.47
2022-10-30T05:03:31.120Z,101567.44
2022-10-30T05:06:04.363Z,101566.28
2022-10-30T05:08:31.366Z,101564.06
2022-10-30T05:11:05.162Z,101559.25
2022-10-30T05:13:32.206Z,101552.59
2022-10-30T05:15:58.991Z,101550.16
2022-10-30T05:18:25.818Z,101553.63
2022-10-30T05:20:53.087Z,101550.31
2022-10-30T05:23:19.980Z,101549.50
2022-10-30T05:25:46.951Z,101552.63
2022-10-30T05:28:16.119Z,101552.72
2022-10-30T05:30:52.349Z,101552.63
2022-10-30T05:33:37.973Z,101556.16
2022-10-30T05:36:05.755Z,101558.66
2022-10-30T05:38:32.543Z,101557.69
2022-10-30T05:40:59.983Z,101559.31
2022-10-30T05:43:26.807Z,101536.66
2022-10-30T05:45:53.667Z,101542.22
2022-10-30T05:48:20.575Z,101533.41
2022-10-30T05:50:47.614Z,101547.53
2022-10-30T05:53:27.198Z,101543.06
2022-10-30T05:55:59.997Z,101550.50
2022-10-30T05:58:31.302Z,101549.38
2022-10-30T06:01:06.072Z,101554.22
2022-10-30T06:03:40.991Z,101547.94
2022-10-30T06:06:07.968Z,101546.53
2022-10-30T06:08:35.514Z,101556.69
2022-10-30T06:11:12.348Z,101554.63
2022-10-30T06:13:41.327Z,101561.50
2022-10-30T06:16:12.471Z,101559.50
2022-10-30T06:19:00.262Z,101566.31
2022-10-30T06:21:28.696Z,101574.28
2022-10-30T06:24:12.818Z,101572.25
2022-10-30T06:27:02.937Z,101574.22
2022-10-30T06:29:30.070Z,101567.44
2022-10-30T06:31:58.695Z,101573.06
2022-10-30T06:34:27.802Z,101569.56
2022-10-30T06:36:54.982Z,101573.88
2022-10-30T06:39:22.873Z,101571.13
2022-10-30T06:42:12.492Z,101574.75
2022-10-30T06:44:49.099Z,101572.25
2022-10-30T06:47:16.303Z,101577.88
2022-10-30T06:49:43.129Z,101578.38
2022-10-30T06:52:10.054Z,101583.22
2022-10-30T06:54:37.573Z,101586.09
2022-10-30T06:57:40.054Z,101590.84
2022-10-30T07:00:25.376Z,101587.72
2022-10-30T07:03:10.831Z,101586.13
2022-10-30T07:05:39.199Z,101592.19
2022-10-30T07:08:06.000Z,101588.25
2022-10-30T07:10:33.116Z,101591.69
2022-10-30T07:13:18.622Z,101592.41
2022-10-30T07:15:54.458Z,101598.03
2022-10-30T07:18:26.344Z,101581.53
2022-10-30T07:20:57.382Z,101584.19
2022-10-30T07:23:25.165Z,101578.97
2022-10-30T07:25:58.357Z,101580.38
2022-10-30T07:28:33.861Z,101591.72
2022-10-30T07:31:28.931Z,101596.19
2022-10-30T07:34:38.343Z,101610.28
2022-10-30T07:37:25.952Z,101610.47
2022-10-30T07:39:59.751Z,101608.75
2022-10-30T07:42:56.491Z,101607.75
2022-10-30T07:45:41.303Z,101616.06
2022-10-30T07:48:26.750Z,101622.91
2022-10-30T07:51:02.251Z,101622.44
2022-10-30T07:53:29.960Z,101628.75
2022-10-30T07:55:58.038Z,101623.47
2022-10-30T07:59:02.964Z,101624.16
2022-10-30T08:01:52.875Z,101619.06
2022-10-30T08:04:39.972Z,101619.13
2022-10-30T08:07:47.133Z,101619.72
2022-10-30T08:10:15.288Z,101614.88
2022-10-30T08:12:44.532Z,101620.69
2022-10-30T08:15:12.259Z,101621.06
2022-10-30T08:17:46.883Z,101618.28
2022-10-30T08:20:15.750Z,101621.50
2022-10-30T08:22:54.046Z,101626.22
2022-10-30T08:25:27.616Z,101622.63
2022-10-30T08:28:04.020Z,101630.41
2022-10-30T08:30:37.493Z,101640.22
2022-10-30T08:33:08.128Z,101632.88
2022-10-30T08:35:56.771Z,101629.53
2022-10-30T08:38:24.255Z,101634.41
2022-10-30T08:41:05.766Z,101632.72
2022-10-30T08:43:38.861Z,101633.25
2022-10-30T08:46:05.848Z,101637.50
2022-10-30T08:48:32.742Z,101636.63
2022-10-30T08:51:01.338Z,101640.44
2022-10-30T08:53:34.299Z,101638.88
2022-10-30T08:56:03.688Z,101641.25
2022-10-30T08:58:42.334Z,101648.06
2022-10-30T09:01:09.472Z,101654.41
2022-10-30T09:03:54.814Z,101642.22
2022-10-30T09:06:47.576Z,101648.34
2022-10-30T09:09:32.981Z,101645.91
2022-10-30T09:12:02.535Z,101641.59
2022-10-30T09:14:34.161Z,101642.34
2022-10-30T09:17:01.008Z,101643.91
2022-10-30T09:19:29.118Z,101651.84
2022-10-30T09:21:58.305Z,101647.19
2022-10-30T09:24:25.188Z,101638.75
2022-10-30T09:26:51.983Z,101648.53
2022-10-30T09:29:26.079Z,101652.63
2022-10-30T09:32:10.562Z,101649.53
2022-10-30T09:34:48.304Z,101653.63
2022-10-30T09:37:24.585Z,101645.78
2022-10-30T09:39:55.262Z,101651.69
2022-10-30T09:42:46.928Z,101656.69
2022-10-30T09:45:29.625Z,101655.00
2022-10-30T09:48:19.495Z,101657.00
2022-10-30T09:51:13.821Z,101654.84
2022-10-30T09:54:10.547Z,101654.31
2022-10-30T09:57:12.625Z,101654.81
2022-10-30T10:00:13.161Z,101650.63
2022-10-30T10:03:19.886Z,101658.34
2022-10-30T10:06:11.559Z,101653.84
2022-10-30T10:09:01.043Z,101654.69
2022-10-30T10:11:58.934Z,101656.44
2022-10-30T10:14:32.547Z,101653.06
2022-10-30T10:17:02.985Z,101652.28
2022-10-30T10:19:38.663Z,101648.22
2022-10-30T10:22:22.882Z,101647.94
2022-10-30T10:24:50.659Z,101650.09
2022-10-30T10:27:32.526Z,101653.28
2022-10-30T10:30:02.993Z,101649.81
2022-10-30T10:32:51.588Z,101652.78
2022-10-30T10:35:24.773Z,101652.34
2022-10-30T10:38:13.561Z,101653.81
2022-10-30T10:41:03.286Z,101662.13
2022-10-30T10:43:54.864Z,101653.25
2022-10-30T10:46:36.864Z,101648.56
2022-10-30T10:49:31.578Z,101643.09
2022-10-30T10:52:07.177Z,101640.19
2022-10-30T10:54:46.205Z,101633.38
2022-10-30T10:57:27.626Z,101638.81
2022-10-30T11:00:23.174Z,101635.56
2022-10-30T11:03:00.392Z,101632.50
2022-10-30T11:05:43.988Z,101632.88
2022-10-30T11:08:17.231Z,101637.94
2022-10-30T11:10:45.937Z,101635.06
2022-10-30T11:13:14.731Z,101651.97
2022-10-30T11:15:58.257Z,101650.88
2022-10-30T11:18:25.179Z,101652.78
2022-10-30T11:21:04.378Z,101650.84
2022-10-30T11:23:36.008Z,101651.44
2022-10-30T11:26:03.398Z,101642.56
2022-10-30T11:28:41.936Z,101645.03
2022-10-30T11:31:18.875Z,101650.25
2022-10-30T11:33:45.752Z,101646.91
2022-10-30T11:36:16.263Z,101656.38
2022-10-30T11:38:43.085Z,101648.13
2022-10-30T11:41:13.382Z,101654.75
2022-10-30T11:43:41.685Z,101641.69
2022-10-30T11:46:21.855Z,101636.47
2022-10-30T11:48:54.992Z,101635.06
2022-10-30T11:51:47.807Z,101634.63
2022-10-30T11:54:21.558Z,101620.09
2022-10-30T11:56:50.127Z,101626.44
2022-10-30T11:59:22.900Z,101625.91
2022-10-30T12:02:21.182Z,101626.06
2022-10-30T12:04:49.619Z,101625.47
2022-10-30T12:07:34.908Z,101626.34
2022-10-30T12:10:03.123Z,101622.78
2022-10-30T12:12:36.163Z,101625.63
2022-10-30T12:15:21.419Z,101626.41
2022-10-30T12:17:58.592Z,101626.78
2022-10-30T12:20:26.825Z,101630.41
2022-10-30T12:22:54.392Z,101625.66
2022-10-30T12:25:25.671Z,101614.78
2022-10-30T12:28:01.160Z,101611.81
2022-10-30T12:30:32.833Z,101621.38
2022-10-30T12:33:13.955Z,101618.16
2022-10-30T12:36:12.205Z,101615.31
2022-10-30T12:38:58.345Z,101621.72
2022-10-30T12:41:29.605Z,101615.19
2022-10-30T12:44:18.766Z,101612.19
2022-10-30T12:46:55.924Z,101609.00
2022-10-30T12:49:39.866Z,101608.28
2022-10-30T12:52:34.315Z,101609.97
2022-10-30T12:55:04.147Z,101610.09
2022-10-30T12:57:41.385Z,101615.13
2022-10-30T13:00:16.832Z,101609.84
2022-10-30T13:03:21.553Z,101611.69
2022-10-30T13:05:59.767Z,101608.88
2022-10-30T13:08:53.455Z,101600.38
2022-10-30T13:11:39.341Z,101594.88
2022-10-30T13:14:13.389Z,101596.94
2022-10-30T13:16:40.257Z,101598.28
2022-10-30T13:19:11.400Z,101608.91
2022-10-30T13:21:59.456Z,101597.22
2022-10-30T13:25:00.759Z,101593.97
2022-10-30T13:27:54.660Z,101590.63
2022-10-30T13:30:23.448Z,101593.06
2022-10-30T13:33:06.587Z,101594.88
2022-10-30T13:35:59.366Z,101595.91
2022-10-30T13:38:46.318Z,101595.84
2022-10-30T13:41:34.449Z,101594.09
2022-10-30T13:44:07.651Z,101588.97
2022-10-30T13:47:08.630Z,101597.06
2022-10-30T13:49:41.413Z,101594.94
2022-10-30T13:52:17.156Z,101592.38
2022-10-30T13:54:59.242Z,101595.84
2022-10-30T13:57:34.330Z,101584.16
2022-10-30T14:00:07.334Z,101588.59
2022-10-30T14:02:58.327Z,101587.69
2022-10-30T14:05:36.841Z,101592.09
2022-10-30T14:08:11.305Z,101590.38
2022-10-30T14:10:45.869Z,101596.72
2022-10-30T14:13:27.088Z,101599.31
2022-10-30T14:16:01.148Z,101599.91
2022-10-30T14:18:30.792Z,101584.41
2022-10-30T14:21:18.777Z,101586.06
2022-10-30T14:23:45.594Z,101584.22
2022-10-30T14:26:14.350Z,101581.16
2022-10-30T14:28:46.933Z,101575.88
2022-10-30T14:31:16.910Z,101574.28
2022-10-30T14:33:48.446Z,101585.78
2022-10-30T14:36:33.691Z,101582.00
2022-10-30T14:39:21.513Z,101574.09
2022-10-30T14:42:03.296Z,101583.66
2022-10-30T14:44:48.514Z,101570.34
2022-10-30T14:47:27.102Z,101559.66
2022-10-30T14:50:01.980Z,101563.31
2022-10-30T14:52:41.145Z,101568.59
2022-10-30T14:55:31.956Z,101575.53
2022-10-30T14:58:01.977Z,101567.56
2022-10-30T15:00:40.046Z,101571.25
2022-10-30T15:03:15.792Z,101562.53
2022-10-30T15:06:06.025Z,101552.50
2022-10-30T15:08:54.949Z,101549.38
2022-10-30T15:11:26.984Z,101560.69
2022-10-30T15:13:58.409Z,101562.09
2022-10-30T15:16:27.883Z,101555.22
2022-10-30T15:19:05.224Z,101553.59
2022-10-30T15:21:41.764Z,101555.50
2022-10-30T15:24:20.284Z,101565.13
2022-10-30T15:26:53.291Z,101573.13
2022-10-30T15:29:31.382Z,101573.81
2022-10-30T15:32:01.603Z,101552.22
2022-10-30T15:34:30.765Z,101562.66
2022-10-30T15:36:57.652Z,101564.84
2022-10-30T15:39:25.433Z,101565.78
2022-10-30T15:41:56.782Z,101566.97
2022-10-30T15:44:27.519Z,101585.53
2022-10-30T15:46:56.907Z,101579.88
2022-10-30T15:49:37.945Z,101593.22
2022-10-30T15:52:25.093Z,101602.66
2022-10-30T15:54:57.911Z,101599.00
2022-10-30T15:58:12.862Z,101594.38
2022-10-30T16:00:26.873Z,101592.84
2022-10-30T16:03:13.655Z,101595.91
2022-10-30T16:05:40.560Z,101598.59
2022-10-30T16:08:15.714Z,101594.31
2022-10-30T16:10:44.482Z,101596.63
2022-10-30T16:13:18.332Z,101607.78
2022-10-30T16:15:49.767Z,101596.03
2022-10-30T16:18:27.216Z,101595.97
2022-10-30T16:21:02.982Z,101584.22
2022-10-30T16:23:36.115Z,101582.31
2022-10-30T16:26:02.906Z,101574.34
2022-10-30T16:28:31.144Z,101565.41
2022-10-30T16:31:01.661Z,101563.09
2022-10-30T16:33:31.187Z,101571.34
2022-10-30T16:35:59.671Z,101564.41
2022-10-30T16:38:29.998Z,101568.78
2022-10-30T16:40:57.217Z,101570.72
2022-10-30T16:43:28.353Z,101568.22
2022-10-30T16:45:57.038Z,101549.63
2022-10-30T16:48:28.745Z,101547.19
2022-10-30T16:51:03.691Z,101556.03
2022-10-30T16:53:31.658Z,101560.00
2022-10-30T16:55:59.358Z,101568.50
2022-10-30T16:58:31.828Z,101572.25
2022-10-30T17:01:06.936Z,101570.50
2022-10-30T17:03:38.297Z,101588.06
2022-10-30T17:06:07.854Z,101601.47
2022-10-30T17:08:43.207Z,101601.66
2022-10-30T17:11:18.784Z,101606.91
2022-10-30T17:13:54.742Z,101602.56
2022-10-30T17:16:27.033Z,101608.47
2022-10-30T17:18:59.580Z,101612.97
2022-10-30T17:21:38.303Z,101619.28
2022-10-30T17:24:05.640Z,101618.38
2022-10-30T17:26:39.232Z,101623.56
2022-10-30T17:29:06.072Z,101621.75
2022-10-30T17:31:38.819Z,101619.16
2022-10-30T17:34:13.629Z,101627.31
2022-10-30T17:36:43.215Z,101623.47
2022-10-30T17:39:10.040Z,101622.13
2022-10-30T17:41:37.545Z,101636.91
2022-10-30T17:44:05.435Z,101648.84
2022-10-30T17:46:32.661Z,101643.81
2022-10-30T17:48:59.962Z,101651.59
2022-10-30T17:51:28.324Z,101657.91
2022-10-30T17:53:55.178Z,101645.72
2022-10-30T17:56:28.892Z,101654.56
2022-10-30T17:58:56.041Z,101660.69
2022-10-30T18:01:25.244Z,101663.19
2022-10-30T18:03:55.151Z,101667.91
2022-10-30T18:06:24.929Z,101670.38
2022-10-30T18:08:51.852Z,101678.84
2022-10-30T18:11:21.067Z,101683.56
2022-10-30T18:13:49.207Z,101678.72
2022-10-30T18:16:18.785Z,101683.19
2022-10-30T18:18:45.941Z,101683.19
2022-10-30T18:21:17.920Z,101680.84
2022-10-30T18:23:53.424Z,101689.34
2022-10-30T18:26:25.339Z,101693.13
2022-10-30T18:28:52.845Z,101695.97
2022-10-30T18:31:22.064Z,101703.13
2022-10-30T18:33:49.431Z,101705.47
2022-10-30T18:36:18.693Z,101697.31
2022-10-30T18:38:54.722Z,101692.34
2022-10-30T18:41:35.568Z,101697.25
2022-10-30T18:44:02.889Z,101709.75
2022-10-30T18:46:31.452Z,101708.75
2022-10-30T18:48:58.954Z,101711.34
2022-10-30T18:51:27.493Z,101712.78
2022-10-30T18:53:57.160Z,101705.25
2022-10-30T18:56:26.895Z,101703.44
2022-10-30T18:58:58.690Z,101696.44
2022-10-30T19:01:34.146Z,101690.66
2022-10-30T19:04:02.383Z,101699.34
2022-10-30T19:06:29.636Z,101697.91
2022-10-30T19:08:56.468Z,101701.84
2022-10-30T19:11:25.333Z,101698.38
2022-10-30T19:13:53.777Z,101702.63
2022-10-30T19:16:21.733Z,101691.56
2022-10-30T19:18:48.737Z,101685.59
2022-10-30T19:21:21.269Z,101690.88
2022-10-30T19:23:48.604Z,101701.59
2022-10-30T19:26:16.240Z,101691.69
2022-10-30T19:28:44.393Z,101681.94
2022-10-30T19:31:16.080Z,101693.66
2022-10-30T19:33:42.975Z,101713.44
2022-10-30T19:36:33.846Z,101722.72
2022-10-30T19:39:08.338Z,101721.13
2022-10-30T19:41:36.225Z,101731.84
2022-10-30T19:44:03.158Z,101730.44
2022-10-30T19:46:29.972Z,101735.66
2022-10-30T19:48:58.127Z,101741.47
2022-10-30T19:51:25.655Z,101750.03
2022-10-30T19:53:53.845Z,101746.19
2022-10-30T19:56:21.692Z,101748.56
2022-10-30T19:58:48.840Z,101747.59
2022-10-30T20:01:16.170Z,101749.72
2022-10-30T20:03:43.377Z,101750.72
2022-10-30T20:06:14.051Z,101752.44
2022-10-30T20:08:41.221Z,101756.63
2022-10-30T20:11:08.385Z,101756.31
2022-10-30T20:13:37.252Z,101759.81
2022-10-30T20:16:05.400Z,101763.00
2022-10-30T20:18:35.095Z,101765.50
2022-10-30T20:21:13.496Z,101781.53
2022-10-30T20:23:40.265Z,101784.56
2022-10-30T20:26:26.426Z,101779.50
2022-10-30T20:28:53.621Z,101772.13
2022-10-30T20:31:20.935Z,101773.59
2022-10-30T20:33:47.826Z,101772.53
2022-10-30T20:36:14.684Z,101764.44
2022-10-30T20:38:41.622Z,101756.28
2022-10-30T20:41:21.149Z,101766.78
2022-10-30T20:43:50.063Z,101778.28
2022-10-30T20:46:17.704Z,101782.47
2022-10-30T20:48:44.513Z,101779.59
2022-10-30T20:51:11.739Z,101780.59
2022-10-30T20:53:38.972Z,101784.88
2022-10-30T20:56:06.512Z,101793.19
2022-10-30T20:58:33.433Z,101783.34
2022-10-30T21:01:00.751Z,101805.94
2022-10-30T21:03:28.014Z,101806.31
2022-10-30T21:06:00.015Z,101806.66
2022-10-30T21:08:31.744Z,101792.34
2022-10-30T21:11:03.123Z,101810.66
2022-10-30T21:13:30.212Z,101813.53
2022-10-30T21:16:01.822Z,101801.56
2022-10-30T21:18:28.646Z,101808.00
2022-10-30T21:21:00.544Z,101809.44
2022-10-30T21:23:27.457Z,101818.94
2022-10-30T21:25:59.908Z,101838.38
2022-10-30T21:28:26.686Z,101851.91
2022-10-30T21:30:53.448Z,101849.97
2022-10-30T21:33:20.265Z,101847.06
2022-10-30T21:35:47.048Z,101843.41
2022-10-30T21:38:13.848Z,101848.78
2022-10-30T21:40:40.604Z,101843.41
2022-10-30T21:43:07.743Z,101839.09
2022-10-30T21:45:36.717Z,101848.34
2022-10-30T21:48:03.601Z,101845.59
2022-10-30T21:50:30.351Z,101849.16
2022-10-30T21:52:57.378Z,101857.97
2022-10-30T21:55:24.411Z,101857.75
2022-10-30T21:57:51.236Z,101844.59
2022-10-30T22:00:18.216Z,101836.56
2022-10-30T22:02:45.028Z,101827.88
2022-10-30T22:05:11.800Z,101833.25
2022-10-30T22:07:38.606Z,101818.81
2022-10-30T22:10:06.081Z,101830.00
2022-10-30T22:12:32.926Z,101835.09
2022-10-30T22:14:59.759Z,101841.00
2022-10-30T22:17:30.675Z,101842.34
2022-10-30T22:20:00.673Z,101833.16
2022-10-30T22:22:29.003Z,101841.63
2022-10-30T22:24:55.775Z,101842.44
2022-10-30T22:27:22.548Z,101845.22
2022-10-30T22:29:49.296Z,101842.06
2022-10-30T22:32:16.089Z,101843.22
2022-10-30T22:34:42.819Z,101841.84
2022-10-30T22:37:09.571Z,101850.50
2022-10-30T22:39:36.339Z,101855.69
2022-10-30T22:42:03.088Z,101860.03
2022-10-30T22:44:29.872Z,101858.81
2022-10-30T22:46:56.630Z,101860.34
2022-10-30T22:49:23.402Z,101857.88
2022-10-30T22:51:50.164Z,101850.31
2022-10-30T22:54:16.961Z,101859.94
2022-10-30T22:56:43.742Z,101862.34
2022-10-30T22:59:12.972Z,101866.06
2022-10-30T23:01:40.904Z,101864.41
2022-10-30T23:04:11.053Z,101859.28
2022-10-30T23:06:38.257Z,101870.94
2022-10-30T23:09:08.539Z,101855.88
2022-10-30T23:11:35.442Z,101865.25
2022-10-30T23:14:02.232Z,101865.69
2022-10-30T23:16:29.364Z,101868.53
2022-10-30T23:18:58.677Z,101873.47
2022-10-30T23:21:28.339Z,101875.56
2022-10-30T23:23:55.929Z,101876.09
2022-10-30T23:26:28.893Z,101876.75
2022-10-30T23:28:57.015Z,101883.59
2022-10-30T23:31:27.540Z,101880.75
2022-10-30T23:33:57.575Z,101881.13
2022-10-30T23:36:25.313Z,101885.41
2022-10-30T23:38:55.781Z,101891.22
2022-10-30T23:41:24.995Z,101901.84
2022-10-30T23:43:57.086Z,101904.72
2022-10-30T23:46:24.061Z,101904.03
2022-10-30T23:48:50.839Z,101903.72
2022-10-30T23:51:18.539Z,101904.19
2022-10-30T23:53:45.305Z,101903.50
2022-10-30T23:56:12.595Z,101899.31
2022-10-30T23:58:42.355Z,101901.75
